sensor_id;sensor_type;location;lat;lon;timestamp;pressure;altitude;pressure_sealevel;temperature;humidity
18167;BME280;9208;42.688;23.404;2023-05-24T00:01:16;95282.28;;;15.49;100.00
18167;BME280;9208;42.688;23.404;2023-05-24T00:03:53;95286.72;;;15.63;100.00
18167;BME280;9208;42.688;23.404;2023-05-24T00:06:23;95287.44;;;15.69;100.00
18167;BME280;9208;42.688;23.404;2023-05-24T00:08:50;95284.09;;;15.76;100.00
18167;BME280;9208;42.688;23.404;2023-05-24T00:11:16;95292.56;;;15.83;100.00
18167;BME280;9208;42.688;23.404;2023-05-24T00:13:42;95284.53;;;15.85;100.00
18167;BME280;9208;42.688;23.404;2023-05-24T00:16:07;95281.97;;;15.87;100.00
18167;BME280;9208;42.688;23.404;2023-05-24T00:18:33;95280.25;;;15.84;100.00
18167;BME280;9208;42.688;23.404;2023-05-24T00:20:58;95274.44;;;15.88;100.00
18167;BME280;9208;42.688;23.404;2023-05-24T00:23:24;95281.50;;;15.83;100.00
18167;BME280;9208;42.688;23.404;2023-05-24T00:25:50;95287.28;;;15.85;100.00
18167;BME280;9208;42.688;23.404;2023-05-24T00:28:16;95274.75;;;15.84;100.00
18167;BME280;9208;42.688;23.404;2023-05-24T00:30:41;95277.28;;;15.77;100.00
18167;BME280;9208;42.688;23.404;2023-05-24T00:33:07;95284.13;;;15.70;100.00
18167;BME280;9208;42.688;23.404;2023-05-24T00:35:32;95280.16;;;15.66;100.00
18167;BME280;9208;42.688;23.404;2023-05-24T00:37:58;95273.13;;;15.65;100.00
18167;BME280;9208;42.688;23.404;2023-05-24T00:40:23;95269.94;;;15.55;100.00
18167;BME280;9208;42.688;23.404;2023-05-24T00:42:49;95273.28;;;15.48;100.00
18167;BME280;9208;42.688;23.404;2023-05-24T00:45:14;95270.28;;;15.41;100.00
18167;BME280;9208;42.688;23.404;2023-05-24T00:47:40;95271.09;;;15.36;100.00
18167;BME280;9208;42.688;23.404;2023-05-24T00:50:07;95269.59;;;15.29;100.00
18167;BME280;9208;42.688;23.404;2023-05-24T00:52:34;95267.19;;;15.15;100.00
18167;BME280;9208;42.688;23.404;2023-05-24T00:55:00;95270.78;;;15.04;100.00
18167;BME280;9208;42.688;23.404;2023-05-24T00:57:26;95275.13;;;14.89;100.00
18167;BME280;9208;42.688;23.404;2023-05-24T00:59:51;95269.91;;;14.80;100.00
18167;BME280;9208;42.688;23.404;2023-05-24T01:02:17;95272.94;;;14.76;100.00
18167;BME280;9208;42.688;23.404;2023-05-24T01:04:43;95282.72;;;14.72;100.00
18167;BME280;9208;42.688;23.404;2023-05-24T01:07:28;95275.75;;;14.60;100.00
18167;BME280;9208;42.688;23.404;2023-05-24T01:12:49;95280.50;;;14.65;100.00
18167;BME280;9208;42.688;23.404;2023-05-24T01:20:18;95284.50;;;14.69;100.00
18167;BME280;9208;42.688;23.404;2023-05-24T01:23:24;95295.25;;;14.73;100.00
18167;BME280;9208;42.688;23.404;2023-05-24T01:26:04;95295.03;;;14.65;100.00
18167;BME280;9208;42.688;23.404;2023-05-24T01:28:33;95295.81;;;14.66;100.00
18167;BME280;9208;42.688;23.404;2023-05-24T01:30:59;95299.56;;;14.68;100.00
18167;BME280;9208;42.688;23.404;2023-05-24T01:33:26;95297.78;;;14.76;100.00
18167;BME280;9208;42.688;23.404;2023-05-24T01:35:51;95297.81;;;14.65;100.00
18167;BME280;9208;42.688;23.404;2023-05-24T01:38:16;95295.31;;;14.62;100.00
18167;BME280;9208;42.688;23.404;2023-05-24T01:40:43;95293.75;;;14.72;100.00
18167;BME280;9208;42.688;23.404;2023-05-24T01:43:17;95286.47;;;14.74;100.00
18167;BME280;9208;42.688;23.404;2023-05-24T01:45:54;95291.22;;;14.74;100.00
18167;BME280;9208;42.688;23.404;2023-05-24T01:51:00;95292.75;;;14.75;100.00
18167;BME280;9208;42.688;23.404;2023-05-24T01:53:40;95287.75;;;14.73;100.00
18167;BME280;9208;42.688;23.404;2023-05-24T01:56:06;95272.75;;;14.58;100.00
18167;BME280;9208;42.688;23.404;2023-05-24T01:58:33;95287.31;;;14.53;100.00
18167;BME280;9208;42.688;23.404;2023-05-24T02:01:01;95284.06;;;14.49;100.00
18167;BME280;9208;42.688;23.404;2023-05-24T02:03:27;95292.88;;;14.42;100.00
18167;BME280;9208;42.688;23.404;2023-05-24T02:05:52;95290.38;;;14.38;100.00
18167;BME280;9208;42.688;23.404;2023-05-24T02:08:18;95288.38;;;14.39;100.00
18167;BME280;9208;42.688;23.404;2023-05-24T02:10:43;95287.09;;;14.45;100.00
18167;BME280;9208;42.688;23.404;2023-05-24T02:13:09;95280.34;;;14.35;100.00
18167;BME280;9208;42.688;23.404;2023-05-24T02:15:34;95283.16;;;14.24;100.00
18167;BME280;9208;42.688;23.404;2023-05-24T02:18:00;95279.63;;;14.18;100.00
18167;BME280;9208;42.688;23.404;2023-05-24T02:20:29;95276.88;;;14.13;100.00
18167;BME280;9208;42.688;23.404;2023-05-24T02:23:04;95274.63;;;14.06;100.00
18167;BME280;9208;42.688;23.404;2023-05-24T02:25:30;95279.63;;;14.07;100.00
18167;BME280;9208;42.688;23.404;2023-05-24T02:27:59;95274.66;;;14.00;100.00
18167;BME280;9208;42.688;23.404;2023-05-24T02:30:25;95281.41;;;14.05;100.00
18167;BME280;9208;42.688;23.404;2023-05-24T02:32:50;95280.13;;;14.06;100.00
18167;BME280;9208;42.688;23.404;2023-05-24T02:35:16;95283.16;;;14.08;100.00
18167;BME280;9208;42.688;23.404;2023-05-24T02:37:41;95282.88;;;14.17;100.00
18167;BME280;9208;42.688;23.404;2023-05-24T02:40:07;95279.88;;;14.26;100.00
18167;BME280;9208;42.688;23.404;2023-05-24T02:42:33;95276.59;;;14.33;100.00
18167;BME280;9208;42.688;23.404;2023-05-24T02:44:58;95278.13;;;14.34;100.00
18167;BME280;9208;42.688;23.404;2023-05-24T02:47:24;95277.13;;;14.31;100.00
18167;BME280;9208;42.688;23.404;2023-05-24T02:49:52;95279.84;;;14.37;100.00
18167;BME280;9208;42.688;23.404;2023-05-24T02:52:17;95275.81;;;14.38;100.00
18167;BME280;9208;42.688;23.404;2023-05-24T02:54:46;95277.34;;;14.39;100.00
18167;BME280;9208;42.688;23.404;2023-05-24T02:57:11;95279.34;;;14.33;100.00
18167;BME280;9208;42.688;23.404;2023-05-24T02:59:37;95277.34;;;14.39;100.00
18167;BME280;9208;42.688;23.404;2023-05-24T03:02:02;95275.09;;;14.32;100.00
18167;BME280;9208;42.688;23.404;2023-05-24T03:04:28;95279.13;;;14.31;100.00
18167;BME280;9208;42.688;23.404;2023-05-24T03:06:53;95285.91;;;14.30;100.00
18167;BME280;9208;42.688;23.404;2023-05-24T03:09:18;95288.16;;;14.26;100.00
18167;BME280;9208;42.688;23.404;2023-05-24T03:11:44;95286.66;;;14.19;100.00
18167;BME280;9208;42.688;23.404;2023-05-24T03:14:10;95297.41;;;14.17;100.00
18167;BME280;9208;42.688;23.404;2023-05-24T03:16:36;95294.66;;;14.17;100.00
18167;BME280;9208;42.688;23.404;2023-05-24T03:19:02;95299.69;;;14.13;100.00
18167;BME280;9208;42.688;23.404;2023-05-24T03:21:27;95292.66;;;14.12;100.00
18167;BME280;9208;42.688;23.404;2023-05-24T03:23:53;95299.44;;;14.17;100.00
18167;BME280;9208;42.688;23.404;2023-05-24T03:26:18;95299.94;;;14.15;100.00
18167;BME280;9208;42.688;23.404;2023-05-24T03:28:44;95298.94;;;14.13;100.00
18167;BME280;9208;42.688;23.404;2023-05-24T03:31:10;95304.94;;;14.17;100.00
18167;BME280;9208;42.688;23.404;2023-05-24T03:33:36;95304.94;;;14.17;100.00
18167;BME280;9208;42.688;23.404;2023-05-24T03:36:02;95312.22;;;14.31;100.00
18167;BME280;9208;42.688;23.404;2023-05-24T03:38:28;95312.69;;;14.35;100.00
18167;BME280;9208;42.688;23.404;2023-05-24T03:40:54;95318.75;;;14.22;100.00
18167;BME280;9208;42.688;23.404;2023-05-24T03:43:19;95305.72;;;14.12;100.00
18167;BME280;9208;42.688;23.404;2023-05-24T03:45:45;95321.72;;;14.19;100.00
18167;BME280;9208;42.688;23.404;2023-05-24T03:48:11;95317.72;;;14.14;100.00
18167;BME280;9208;42.688;23.404;2023-05-24T03:50:37;95315.47;;;14.18;100.00
18167;BME280;9208;42.688;23.404;2023-05-24T03:53:02;95308.97;;;14.16;100.00
18167;BME280;9208;42.688;23.404;2023-05-24T03:55:28;95311.47;;;14.25;100.00
18167;BME280;9208;42.688;23.404;2023-05-24T03:57:53;95308.72;;;14.25;100.00
18167;BME280;9208;42.688;23.404;2023-05-24T04:00:19;95315.47;;;14.24;100.00
18167;BME280;9208;42.688;23.404;2023-05-24T04:02:47;95323.47;;;14.33;100.00
18167;BME280;9208;42.688;23.404;2023-05-24T04:05:13;95321.97;;;14.37;100.00
18167;BME280;9208;42.688;23.404;2023-05-24T04:07:38;95324.97;;;14.45;100.00
18167;BME280;9208;42.688;23.404;2023-05-24T04:10:07;95321.69;;;14.52;100.00
18167;BME280;9208;42.688;23.404;2023-05-24T04:12:35;95325.66;;;14.62;100.00
18167;BME280;9208;42.688;23.404;2023-05-24T04:15:02;95331.91;;;14.68;100.00
18167;BME280;9208;42.688;23.404;2023-05-24T04:17:27;95327.59;;;14.78;100.00
18167;BME280;9208;42.688;23.404;2023-05-24T04:19:54;95327.06;;;14.90;100.00
18167;BME280;9208;42.688;23.404;2023-05-24T04:22:20;95330.53;;;15.02;100.00
18167;BME280;9208;42.688;23.404;2023-05-24T04:24:46;95333.72;;;15.11;100.00
18167;BME280;9208;42.688;23.404;2023-05-24T04:27:12;95330.44;;;15.18;100.00
18167;BME280;9208;42.688;23.404;2023-05-24T04:29:40;95329.38;;;15.27;100.00
18167;BME280;9208;42.688;23.404;2023-05-24T04:32:06;95332.88;;;15.27;100.00
18167;BME280;9208;42.688;23.404;2023-05-24T04:34:31;95335.63;;;15.33;100.00
18167;BME280;9208;42.688;23.404;2023-05-24T04:37:00;95331.88;;;15.30;100.00
18167;BME280;9208;42.688;23.404;2023-05-24T04:39:27;95337.16;;;15.28;100.00
18167;BME280;9208;42.688;23.404;2023-05-24T04:41:53;95341.69;;;15.26;100.00
18167;BME280;9208;42.688;23.404;2023-05-24T04:44:20;95345.69;;;15.30;100.00
18167;BME280;9208;42.688;23.404;2023-05-24T04:46:45;95342.16;;;15.30;100.00
18167;BME280;9208;42.688;23.404;2023-05-24T04:49:11;95346.19;;;15.29;100.00
18167;BME280;9208;42.688;23.404;2023-05-24T04:51:37;95355.72;;;15.28;100.00
18167;BME280;9208;42.688;23.404;2023-05-24T04:54:05;95362.50;;;15.32;100.00
18167;BME280;9208;42.688;23.404;2023-05-24T04:56:38;95353.72;;;15.34;100.00
18167;BME280;9208;42.688;23.404;2023-05-24T04:59:05;95351.72;;;15.29;100.00
18167;BME280;9208;42.688;23.404;2023-05-24T05:01:31;95349.69;;;15.29;100.00
18167;BME280;9208;42.688;23.404;2023-05-24T05:03:57;95358.75;;;15.35;100.00
18167;BME280;9208;42.688;23.404;2023-05-24T05:06:22;95353.16;;;15.41;100.00
18167;BME280;9208;42.688;23.404;2023-05-24T05:08:49;95354.22;;;15.38;100.00
18167;BME280;9208;42.688;23.404;2023-05-24T05:11:14;95353.94;;;15.36;100.00
18167;BME280;9208;42.688;23.404;2023-05-24T05:13:40;95358.69;;;15.41;100.00
18167;BME280;9208;42.688;23.404;2023-05-24T05:16:05;95360.38;;;15.55;100.00
18167;BME280;9208;42.688;23.404;2023-05-24T05:18:31;95357.31;;;15.64;100.00
18167;BME280;9208;42.688;23.404;2023-05-24T05:20:58;95357.50;;;15.71;100.00
18167;BME280;9208;42.688;23.404;2023-05-24T05:23:23;95356.72;;;15.76;100.00
18167;BME280;9208;42.688;23.404;2023-05-24T05:25:49;95362.44;;;15.84;100.00
18167;BME280;9208;42.688;23.404;2023-05-24T05:28:14;95363.66;;;15.88;100.00
18167;BME280;9208;42.688;23.404;2023-05-24T05:30:39;95365.09;;;15.95;100.00
18167;BME280;9208;42.688;23.404;2023-05-24T05:33:05;95364.34;;;16.00;100.00
18167;BME280;9208;42.688;23.404;2023-05-24T05:35:31;95358.75;;;16.05;100.00
18167;BME280;9208;42.688;23.404;2023-05-24T05:37:57;95356.16;;;16.13;100.00
18167;BME280;9208;42.688;23.404;2023-05-24T05:40:22;95366.09;;;16.27;100.00
18167;BME280;9208;42.688;23.404;2023-05-24T05:42:48;95364.53;;;16.31;100.00
18167;BME280;9208;42.688;23.404;2023-05-24T05:45:14;95351.94;;;16.36;100.00
18167;BME280;9208;42.688;23.404;2023-05-24T05:47:40;95356.91;;;16.43;100.00
18167;BME280;9208;42.688;23.404;2023-05-24T05:50:06;95354.56;;;16.52;100.00
18167;BME280;9208;42.688;23.404;2023-05-24T05:52:32;95357.72;;;16.62;100.00
18167;BME280;9208;42.688;23.404;2023-05-24T05:54:57;95361.41;;;16.70;100.00
18167;BME280;9208;42.688;23.404;2023-05-24T05:57:24;95362.56;;;16.80;100.00
18167;BME280;9208;42.688;23.404;2023-05-24T05:59:49;95365.78;;;16.84;100.00
18167;BME280;9208;42.688;23.404;2023-05-24T06:02:15;95349.47;;;16.80;100.00
18167;BME280;9208;42.688;23.404;2023-05-24T06:04:42;95370.69;;;16.96;100.00
18167;BME280;9208;42.688;23.404;2023-05-24T06:07:07;95370.28;;;16.87;100.00
18167;BME280;9208;42.688;23.404;2023-05-24T06:09:33;95367.81;;;16.83;100.00
18167;BME280;9208;42.688;23.404;2023-05-24T06:11:58;95371.72;;;16.93;100.00
18167;BME280;9208;42.688;23.404;2023-05-24T06:14:23;95373.75;;;16.93;100.00
18167;BME280;9208;42.688;23.404;2023-05-24T06:16:50;95375.69;;;16.98;100.00
18167;BME280;9208;42.688;23.404;2023-05-24T06:19:16;95375.47;;;16.96;100.00
18167;BME280;9208;42.688;23.404;2023-05-24T06:21:43;95368.31;;;17.06;100.00
18167;BME280;9208;42.688;23.404;2023-05-24T06:24:13;95380.28;;;17.14;100.00
18167;BME280;9208;42.688;23.404;2023-05-24T06:26:39;95373.72;;;17.17;100.00
18167;BME280;9208;42.688;23.404;2023-05-24T06:29:05;95370.13;;;17.22;100.00
18167;BME280;9208;42.688;23.404;2023-05-24T06:31:31;95366.03;;;17.28;100.00
18167;BME280;9208;42.688;23.404;2023-05-24T06:33:57;95374.03;;;17.32;100.00
18167;BME280;9208;42.688;23.404;2023-05-24T06:36:22;95361.91;;;17.35;100.00
18167;BME280;9208;42.688;23.404;2023-05-24T06:38:48;95369.56;;;17.47;99.02
18167;BME280;9208;42.688;23.404;2023-05-24T06:41:13;95373.75;;;17.54;97.84
18167;BME280;9208;42.688;23.404;2023-05-24T06:43:38;95365.66;;;17.56;97.91
18167;BME280;9208;42.688;23.404;2023-05-24T06:46:05;95359.97;;;17.48;97.76
18167;BME280;9208;42.688;23.404;2023-05-24T06:48:30;95374.59;;;17.49;97.85
18167;BME280;9208;42.688;23.404;2023-05-24T06:50:56;95361.31;;;17.60;96.63
18167;BME280;9208;42.688;23.404;2023-05-24T06:53:21;95366.94;;;17.73;95.11
18167;BME280;9208;42.688;23.404;2023-05-24T06:55:47;95365.66;;;17.74;94.58
18167;BME280;9208;42.688;23.404;2023-05-24T06:58:12;95370.44;;;17.74;93.65
18167;BME280;9208;42.688;23.404;2023-05-24T07:00:39;95362.13;;;17.74;93.41
18167;BME280;9208;42.688;23.404;2023-05-24T07:03:10;95363.78;;;17.82;93.06
18167;BME280;9208;42.688;23.404;2023-05-24T07:05:35;95362.09;;;17.92;91.45
18167;BME280;9208;42.688;23.404;2023-05-24T07:08:01;95360.94;;;18.01;90.75
18167;BME280;9208;42.688;23.404;2023-05-24T07:10:26;95360.78;;;18.12;89.71
18167;BME280;9208;42.688;23.404;2023-05-24T07:12:52;95367.94;;;18.20;88.61
18167;BME280;9208;42.688;23.404;2023-05-24T07:15:17;95356.97;;;18.28;88.37
18167;BME280;9208;42.688;23.404;2023-05-24T07:17:42;95360.31;;;18.39;86.75
18167;BME280;9208;42.688;23.404;2023-05-24T07:20:09;95366.03;;;18.47;86.44
18167;BME280;9208;42.688;23.404;2023-05-24T07:22:35;95358.25;;;18.59;86.15
18167;BME280;9208;42.688;23.404;2023-05-24T07:25:00;95365.41;;;18.67;85.23
18167;BME280;9208;42.688;23.404;2023-05-24T07:27:26;95365.50;;;18.75;84.57
18167;BME280;9208;42.688;23.404;2023-05-24T07:29:51;95375.66;;;18.85;83.86
18167;BME280;9208;42.688;23.404;2023-05-24T07:32:17;95378.97;;;18.97;83.00
18167;BME280;9208;42.688;23.404;2023-05-24T07:34:42;95373.75;;;19.06;81.36
18167;BME280;9208;42.688;23.404;2023-05-24T07:37:07;95370.53;;;19.15;81.19
18167;BME280;9208;42.688;23.404;2023-05-24T07:39:33;95366.25;;;19.14;82.99
18167;BME280;9208;42.688;23.404;2023-05-24T07:41:58;95370.97;;;19.19;83.12
18167;BME280;9208;42.688;23.404;2023-05-24T07:44:24;95371.09;;;19.27;83.59
18167;BME280;9208;42.688;23.404;2023-05-24T07:46:49;95367.09;;;19.35;83.29
18167;BME280;9208;42.688;23.404;2023-05-24T07:49:15;95362.94;;;19.42;82.75
18167;BME280;9208;42.688;23.404;2023-05-24T07:51:41;95365.47;;;19.53;82.14
18167;BME280;9208;42.688;23.404;2023-05-24T07:54:06;95359.47;;;19.62;81.66
18167;BME280;9208;42.688;23.404;2023-05-24T07:56:32;95363.91;;;19.78;81.16
18167;BME280;9208;42.688;23.404;2023-05-24T07:58:57;95368.13;;;19.92;77.89
18167;BME280;9208;42.688;23.404;2023-05-24T08:01:32;95364.16;;;20.00;77.25
18167;BME280;9208;42.688;23.404;2023-05-24T08:04:02;95356.09;;;20.10;76.71
18167;BME280;9208;42.688;23.404;2023-05-24T08:06:28;95366.34;;;20.15;74.20
18167;BME280;9208;42.688;23.404;2023-05-24T08:08:54;95347.63;;;20.15;74.57
18167;BME280;9208;42.688;23.404;2023-05-24T08:11:21;95361.47;;;20.28;74.33
18167;BME280;9208;42.688;23.404;2023-05-24T08:13:46;95351.34;;;20.38;73.82
18167;BME280;9208;42.688;23.404;2023-05-24T08:16:12;95362.94;;;20.50;72.36
18167;BME280;9208;42.688;23.404;2023-05-24T08:18:37;95361.38;;;20.62;71.54
18167;BME280;9208;42.688;23.404;2023-05-24T08:21:03;95352.53;;;20.71;70.36
18167;BME280;9208;42.688;23.404;2023-05-24T08:23:28;95366.34;;;20.84;67.07
18167;BME280;9208;42.688;23.404;2023-05-24T08:25:56;95370.03;;;20.99;65.00
18167;BME280;9208;42.688;23.404;2023-05-24T08:28:22;95368.22;;;21.09;62.29
18167;BME280;9208;42.688;23.404;2023-05-24T08:30:48;95386.13;;;21.21;58.88
18167;BME280;9208;42.688;23.404;2023-05-24T08:33:13;95376.66;;;21.24;59.03
18167;BME280;9208;42.688;23.404;2023-05-24T08:35:39;95378.94;;;21.33;58.46
18167;BME280;9208;42.688;23.404;2023-05-24T08:38:05;95385.34;;;21.49;58.50
18167;BME280;9208;42.688;23.404;2023-05-24T08:40:31;95383.16;;;21.62;58.33
18167;BME280;9208;42.688;23.404;2023-05-24T08:42:58;95414.84;;;21.72;54.73
18167;BME280;9208;42.688;23.404;2023-05-24T08:45:28;95419.00;;;21.86;53.56
18167;BME280;9208;42.688;23.404;2023-05-24T08:47:56;95445.84;;;21.97;49.66
18167;BME280;9208;42.688;23.404;2023-05-24T08:50:21;95493.31;;;22.04;46.00
18167;BME280;9208;42.688;23.404;2023-05-24T08:52:47;95497.09;;;22.14;44.66
18167;BME280;9208;42.688;23.404;2023-05-24T08:55:13;95517.22;;;22.20;42.53
18167;BME280;9208;42.688;23.404;2023-05-24T08:57:39;95547.59;;;22.24;41.15
18167;BME280;9208;42.688;23.404;2023-05-24T09:00:07;95533.81;;;22.33;41.44
18167;BME280;9208;42.688;23.404;2023-05-24T09:02:40;95522.69;;;22.41;41.63
18167;BME280;9208;42.688;23.404;2023-05-24T09:05:10;95521.75;;;22.38;41.80
18167;BME280;9208;42.688;23.404;2023-05-24T09:07:36;95534.22;;;22.37;40.71
18167;BME280;9208;42.688;23.404;2023-05-24T09:10:04;95529.63;;;22.47;40.53
18167;BME280;9208;42.688;23.404;2023-05-24T09:12:33;95541.38;;;22.53;40.27
18167;BME280;9208;42.688;23.404;2023-05-24T09:15:00;95535.63;;;22.59;40.48
18167;BME280;9208;42.688;23.404;2023-05-24T09:17:27;95539.53;;;22.63;39.75
18167;BME280;9208;42.688;23.404;2023-05-24T09:19:53;95552.03;;;22.70;39.76
18167;BME280;9208;42.688;23.404;2023-05-24T09:22:18;95542.19;;;22.76;40.00
18167;BME280;9208;42.688;23.404;2023-05-24T09:24:57;95533.25;;;22.85;40.25
18167;BME280;9208;42.688;23.404;2023-05-24T09:27:22;95521.16;;;22.98;40.61
18167;BME280;9208;42.688;23.404;2023-05-24T09:29:48;95525.63;;;23.08;40.26
18167;BME280;9208;42.688;23.404;2023-05-24T09:32:16;95518.94;;;23.11;39.95
18167;BME280;9208;42.688;23.404;2023-05-24T09:34:43;95533.47;;;23.17;39.55
18167;BME280;9208;42.688;23.404;2023-05-24T09:37:14;95519.72;;;23.19;40.02
18167;BME280;9208;42.688;23.404;2023-05-24T09:39:44;95516.72;;;23.25;39.81
18167;BME280;9208;42.688;23.404;2023-05-24T09:42:14;95519.50;;;23.25;39.43
18167;BME280;9208;42.688;23.404;2023-05-24T09:44:40;95519.53;;;23.32;39.54
18167;BME280;9208;42.688;23.404;2023-05-24T09:47:06;95521.56;;;23.39;39.21
18167;BME280;9208;42.688;23.404;2023-05-24T09:49:35;95525.09;;;23.47;38.97
18167;BME280;9208;42.688;23.404;2023-05-24T09:52:01;95527.13;;;23.54;38.90
18167;BME280;9208;42.688;23.404;2023-05-24T09:54:27;95513.72;;;23.60;39.46
18167;BME280;9208;42.688;23.404;2023-05-24T09:56:52;95514.06;;;23.64;39.38
18167;BME280;9208;42.688;23.404;2023-05-24T09:59:18;95520.41;;;23.65;39.17
18167;BME280;9208;42.688;23.404;2023-05-24T10:01:44;95511.28;;;23.64;39.21
18167;BME280;9208;42.688;23.404;2023-05-24T10:04:10;95495.03;;;23.70;40.17
18167;BME280;9208;42.688;23.404;2023-05-24T10:06:36;95534.03;;;23.76;37.30
18167;BME280;9208;42.688;23.404;2023-05-24T10:09:03;95525.41;;;23.89;38.13
18167;BME280;9208;42.688;23.404;2023-05-24T10:11:31;95520.03;;;23.76;38.41
18167;BME280;9208;42.688;23.404;2023-05-24T10:13:58;95512.56;;;23.78;37.92
18167;BME280;9208;42.688;23.404;2023-05-24T10:16:24;95532.31;;;23.80;38.05
18167;BME280;9208;42.688;23.404;2023-05-24T10:18:49;95520.59;;;23.74;37.75
18167;BME280;9208;42.688;23.404;2023-05-24T10:21:16;95509.56;;;23.76;37.93
18167;BME280;9208;42.688;23.404;2023-05-24T10:23:48;95508.41;;;23.87;38.16
18167;BME280;9208;42.688;23.404;2023-05-24T10:26:15;95514.56;;;23.93;37.59
18167;BME280;9208;42.688;23.404;2023-05-24T10:28:47;95561.47;;;23.92;34.76
18167;BME280;9208;42.688;23.404;2023-05-24T10:33:45;95567.22;;;23.94;34.86
18167;BME280;9208;42.688;23.404;2023-05-24T10:36:13;95556.59;;;24.00;35.75
18167;BME280;9208;42.688;23.404;2023-05-24T10:38:40;95533.53;;;24.24;36.21
18167;BME280;9208;42.688;23.404;2023-05-24T10:41:07;95531.97;;;24.38;36.34
18167;BME280;9208;42.688;23.404;2023-05-24T10:43:36;95544.97;;;24.58;35.89
18167;BME280;9208;42.688;23.404;2023-05-24T10:46:03;95537.03;;;24.79;35.98
18167;BME280;9208;42.688;23.404;2023-05-24T10:50:55;95558.97;;;24.98;33.99
18167;BME280;9208;42.688;23.404;2023-05-24T10:53:26;95570.56;;;25.02;33.72
18167;BME280;9208;42.688;23.404;2023-05-24T10:56:01;95562.66;;;25.08;34.19
18167;BME280;9208;42.688;23.404;2023-05-24T11:01:28;95589.91;;;25.15;32.38
18167;BME280;9208;42.688;23.404;2023-05-24T11:04:10;95590.97;;;25.27;32.26
18167;BME280;9208;42.688;23.404;2023-05-24T11:07:04;95583.34;;;25.20;32.68
18167;BME280;9208;42.688;23.404;2023-05-24T11:09:31;95575.13;;;25.14;32.66
18167;BME280;9208;42.688;23.404;2023-05-24T11:12:16;95569.75;;;25.09;32.89
18167;BME280;9208;42.688;23.404;2023-05-24T11:14:50;95568.25;;;25.08;33.17
18167;BME280;9208;42.688;23.404;2023-05-24T11:17:19;95545.53;;;25.21;33.90
18167;BME280;9208;42.688;23.404;2023-05-24T11:19:50;95542.28;;;25.32;33.52
18167;BME280;9208;42.688;23.404;2023-05-24T11:22:16;95544.06;;;25.44;33.62
18167;BME280;9208;42.688;23.404;2023-05-24T11:24:44;95557.00;;;25.64;32.76
18167;BME280;9208;42.688;23.404;2023-05-24T11:27:11;95572.34;;;25.63;32.67
18167;BME280;9208;42.688;23.404;2023-05-24T11:29:42;95569.88;;;25.67;32.70
18167;BME280;9208;42.688;23.404;2023-05-24T11:32:08;95549.66;;;25.69;33.15
18167;BME280;9208;42.688;23.404;2023-05-24T11:34:34;95541.31;;;25.62;33.39
18167;BME280;9208;42.688;23.404;2023-05-24T11:37:01;95541.00;;;25.50;33.54
18167;BME280;9208;42.688;23.404;2023-05-24T11:39:35;95528.72;;;25.45;33.78
18167;BME280;9208;42.688;23.404;2023-05-24T11:42:03;95539.53;;;25.49;33.60
18167;BME280;9208;42.688;23.404;2023-05-24T11:44:30;95526.06;;;25.47;33.41
18167;BME280;9208;42.688;23.404;2023-05-24T11:47:00;95520.72;;;25.42;34.04
18167;BME280;9208;42.688;23.404;2023-05-24T11:49:26;95522.75;;;25.41;33.88
18167;BME280;9208;42.688;23.404;2023-05-24T11:51:54;95513.19;;;25.44;33.69
18167;BME280;9208;42.688;23.404;2023-05-24T11:54:20;95499.50;;;25.65;34.14
18167;BME280;9208;42.688;23.404;2023-05-24T11:56:46;95496.91;;;25.85;33.95
18167;BME280;9208;42.688;23.404;2023-05-24T11:59:17;95487.84;;;25.94;34.04
18167;BME280;9208;42.688;23.404;2023-05-24T12:01:46;95500.13;;;25.98;33.15
18167;BME280;9208;42.688;23.404;2023-05-24T12:04:11;95500.56;;;25.95;32.94
18167;BME280;9208;42.688;23.404;2023-05-24T12:06:41;95513.31;;;25.88;32.04
18167;BME280;9208;42.688;23.404;2023-05-24T12:09:08;95517.22;;;25.76;32.62
18167;BME280;9208;42.688;23.404;2023-05-24T12:11:42;95518.03;;;25.68;32.87
18167;BME280;9208;42.688;23.404;2023-05-24T12:14:12;95524.97;;;25.67;32.52
18167;BME280;9208;42.688;23.404;2023-05-24T12:16:38;95512.81;;;25.65;33.29
18167;BME280;9208;42.688;23.404;2023-05-24T12:19:04;95486.38;;;25.68;33.08
18167;BME280;9208;42.688;23.404;2023-05-24T12:21:31;95480.75;;;25.68;33.75
18167;BME280;9208;42.688;23.404;2023-05-24T12:24:12;95461.84;;;25.68;33.92
18167;BME280;9208;42.688;23.404;2023-05-24T12:26:42;95467.22;;;25.57;33.92
18167;BME280;9208;42.688;23.404;2023-05-24T12:29:10;95458.97;;;25.42;34.14
18167;BME280;9208;42.688;23.404;2023-05-24T12:31:39;95456.19;;;25.34;34.54
18167;BME280;9208;42.688;23.404;2023-05-24T12:34:09;95442.91;;;25.35;34.77
18167;BME280;9208;42.688;23.404;2023-05-24T12:36:35;95439.97;;;25.33;34.64
18167;BME280;9208;42.688;23.404;2023-05-24T12:39:14;95456.38;;;25.36;34.14
18167;BME280;9208;42.688;23.404;2023-05-24T12:41:40;95442.13;;;25.42;34.29
18167;BME280;9208;42.688;23.404;2023-05-24T12:44:05;95433.28;;;25.63;34.15
18167;BME280;9208;42.688;23.404;2023-05-24T12:46:31;95440.78;;;25.77;33.56
18167;BME280;9208;42.688;23.404;2023-05-24T12:48:57;95445.59;;;25.84;33.74
18167;BME280;9208;42.688;23.404;2023-05-24T12:51:26;95441.19;;;25.91;34.10
18167;BME280;9208;42.688;23.404;2023-05-24T12:53:52;95441.13;;;25.98;33.54
18167;BME280;9208;42.688;23.404;2023-05-24T12:56:17;95447.16;;;26.12;33.57
18167;BME280;9208;42.688;23.404;2023-05-24T12:58:42;95443.69;;;26.21;33.74
18167;BME280;9208;42.688;23.404;2023-05-24T13:01:08;95443.56;;;26.28;33.45
18167;BME280;9208;42.688;23.404;2023-05-24T13:03:33;95454.38;;;26.32;32.67
18167;BME280;9208;42.688;23.404;2023-05-24T13:05:59;95456.16;;;26.27;32.68
18167;BME280;9208;42.688;23.404;2023-05-24T13:08:25;95449.91;;;26.29;32.79
18167;BME280;9208;42.688;23.404;2023-05-24T13:10:53;95435.94;;;26.38;33.29
18167;BME280;9208;42.688;23.404;2023-05-24T13:13:19;95438.59;;;26.36;33.07